sensor_id;sensor_type;location;lat;lon;timestamp;temperature;humidity
25564;DHT22;13453;47.994;8.790;2022-10-19T00:11:09;22.70;59.20
25564;DHT22;13453;47.994;8.790;2022-10-19T00:21:16;22.60;59.10
25564;DHT22;13453;47.994;8.790;2022-10-19T00:31:18;22.60;59.00
25564;DHT22;13453;47.994;8.790;2022-10-19T00:41:21;22.80;59.30
25564;DHT22;13453;47.994;8.790;2022-10-19T00:51:23;22.60;59.00
25564;DHT22;13453;47.994;8.790;2022-10-19T01:01:26;22.60;58.80
25564;DHT22;13453;47.994;8.790;2022-10-19T01:11:32;22.60;58.80
25564;DHT22;13453;47.994;8.790;2022-10-19T01:21:40;22.60;58.90
25564;DHT22;13453;47.994;8.790;2022-10-19T01:42:26;22.60;58.70
25564;DHT22;13453;47.994;8.790;2022-10-19T01:52:30;22.60;58.80
25564;DHT22;13453;47.994;8.790;2022-10-19T02:02:36;22.60;58.90
25564;DHT22;13453;47.994;8.790;2022-10-19T02:12:39;22.60;58.90
25564;DHT22;13453;47.994;8.790;2022-10-19T02:22:42;22.60;58.90
25564;DHT22;13453;47.994;8.790;2022-10-19T02:32:45;22.60;58.90
25564;DHT22;13453;47.994;8.790;2022-10-19T02:43:00;22.50;59.00
25564;DHT22;13453;47.994;8.790;2022-10-19T02:53:04;22.50;59.00
25564;DHT22;13453;47.994;8.790;2022-10-19T03:03:05;22.50;59.10
25564;DHT22;13453;47.994;8.790;2022-10-19T03:13:07;22.60;59.30
25564;DHT22;13453;47.994;8.790;2022-10-19T03:23:09;22.50;59.20
25564;DHT22;13453;47.994;8.790;2022-10-19T03:33:11;22.50;59.20
25564;DHT22;13453;47.994;8.790;2022-10-19T03:43:12;22.50;59.30
25564;DHT22;13453;47.994;8.790;2022-10-19T03:53:14;22.50;59.20
25564;DHT22;13453;47.994;8.790;2022-10-19T04:03:16;22.50;59.30
25564;DHT22;13453;47.994;8.790;2022-10-19T04:13:18;22.50;59.40
25564;DHT22;13453;47.994;8.790;2022-10-19T04:23:19;22.50;59.40
25564;DHT22;13453;47.994;8.790;2022-10-19T04:33:21;22.50;59.40
25564;DHT22;13453;47.994;8.790;2022-10-19T04:43:23;22.50;59.40
25564;DHT22;13453;47.994;8.790;2022-10-19T04:53:26;22.50;59.80
25564;DHT22;13453;47.994;8.790;2022-10-19T05:03:28;22.50;59.80
25564;DHT22;13453;47.994;8.790;2022-10-19T05:13:34;22.50;59.80
25564;DHT22;13453;47.994;8.790;2022-10-19T05:23:36;22.50;59.80
25564;DHT22;13453;47.994;8.790;2022-10-19T05:33:38;22.50;59.80
25564;DHT22;13453;47.994;8.790;2022-10-19T05:43:41;22.60;59.90
25564;DHT22;13453;47.994;8.790;2022-10-19T05:53:43;22.50;59.80
25564;DHT22;13453;47.994;8.790;2022-10-19T06:03:46;22.50;59.80
25564;DHT22;13453;47.994;8.790;2022-10-19T06:13:54;22.50;59.80
25564;DHT22;13453;47.994;8.790;2022-10-19T06:23:58;22.60;59.90
25564;DHT22;13453;47.994;8.790;2022-10-19T06:34:01;22.50;59.80
25564;DHT22;13453;47.994;8.790;2022-10-19T06:44:03;22.50;59.80
25564;DHT22;13453;47.994;8.790;2022-10-19T06:54:05;22.50;59.80
25564;DHT22;13453;47.994;8.790;2022-10-19T07:04:07;22.50;59.80
25564;DHT22;13453;47.994;8.790;2022-10-19T07:14:09;22.50;59.80
25564;DHT22;13453;47.994;8.790;2022-10-19T07:24:11;22.50;59.80
25564;DHT22;13453;47.994;8.790;2022-10-19T07:34:14;22.50;59.80
25564;DHT22;13453;47.994;8.790;2022-10-19T07:44:16;22.50;60.00
25564;DHT22;13453;47.994;8.790;2022-10-19T07:54:18;22.50;60.50
25564;DHT22;13453;47.994;8.790;2022-10-19T08:04:21;22.50;61.10
25564;DHT22;13453;47.994;8.790;2022-10-19T08:14:43;22.50;61.30
25564;DHT22;13453;47.994;8.790;2022-10-19T08:24:45;22.50;61.20
25564;DHT22;13453;47.994;8.790;2022-10-19T08:34:47;22.50;61.30
25564;DHT22;13453;47.994;8.790;2022-10-19T09:05:02;22.60;61.80
25564;DHT22;13453;47.994;8.790;2022-10-19T09:15:10;22.60;62.30
25564;DHT22;13453;47.994;8.790;2022-10-19T09:25:22;22.60;62.50
25564;DHT22;13453;47.994;8.790;2022-10-19T09:35:33;22.60;62.90
25564;DHT22;13453;47.994;8.790;2022-10-19T09:56:24;22.60;62.70
25564;DHT22;13453;47.994;8.790;2022-10-19T10:06:28;22.60;62.50
25564;DHT22;13453;47.994;8.790;2022-10-19T10:16:33;22.70;62.30
25564;DHT22;13453;47.994;8.790;2022-10-19T10:26:48;22.70;62.40
25564;DHT22;13453;47.994;8.790;2022-10-19T10:36:52;22.70;62.50
25564;DHT22;13453;47.994;8.790;2022-10-19T10:46:56;22.70;62.20
25564;DHT22;13453;47.994;8.790;2022-10-19T11:07:17;22.80;62.00
25564;DHT22;13453;47.994;8.790;2022-10-19T11:17:26;22.80;61.80
25564;DHT22;13453;47.994;8.790;2022-10-19T11:59:28;22.90;61.70
25564;DHT22;13453;47.994;8.790;2022-10-19T12:19:38;22.90;61.60
25564;DHT22;13453;47.994;8.790;2022-10-19T12:29:45;22.90;61.60
25564;DHT22;13453;47.994;8.790;2022-10-19T13:01:00;22.70;60.00
25564;DHT22;13453;47.994;8.790;2022-10-19T13:11:09;22.80;60.10
25564;DHT22;13453;47.994;8.790;2022-10-19T13:32:31;22.70;60.00
25564;DHT22;13453;47.994;8.790;2022-10-19T13:42:33;22.60;60.00
25564;DHT22;13453;47.994;8.790;2022-10-19T14:13:23;22.60;59.90
25564;DHT22;13453;47.994;8.790;2022-10-19T14:23:27;22.50;59.80
25564;DHT22;13453;47.994;8.790;2022-10-19T14:33:33;22.30;59.70
25564;DHT22;13453;47.994;8.790;2022-10-19T14:43:35;22.10;59.00
25564;DHT22;13453;47.994;8.790;2022-10-19T14:53:41;22.10;59.50
25564;DHT22;13453;47.994;8.790;2022-10-19T15:03:45;22.20;59.60
25564;DHT22;13453;47.994;8.790;2022-10-19T15:13:47;22.30;59.70
25564;DHT22;13453;47.994;8.790;2022-10-19T15:23:52;22.30;59.70
25564;DHT22;13453;47.994;8.790;2022-10-19T15:33:59;22.30;59.40
25564;DHT22;13453;47.994;8.790;2022-10-19T15:44:05;21.80;59.20
25564;DHT22;13453;47.994;8.790;2022-10-19T15:54:09;21.60;59.40
25564;DHT22;13453;47.994;8.790;2022-10-19T16:04:11;21.40;60.00
25564;DHT22;13453;47.994;8.790;2022-10-19T16:14:12;21.30;60.00
25564;DHT22;13453;47.994;8.790;2022-10-19T16:24:15;21.30;59.90
25564;DHT22;13453;47.994;8.790;2022-10-19T16:34:16;21.20;59.40
25564;DHT22;13453;47.994;8.790;2022-10-19T16:44:18;21.20;59.20
25564;DHT22;13453;47.994;8.790;2022-10-19T16:54:20;21.20;58.90
25564;DHT22;13453;47.994;8.790;2022-10-19T17:04:22;21.50;59.30
25564;DHT22;13453;47.994;8.790;2022-10-19T17:14:24;21.80;59.20
25564;DHT22;13453;47.994;8.790;2022-10-19T17:24:26;22.00;59.40
25564;DHT22;13453;47.994;8.790;2022-10-19T17:34:28;22.10;59.50
25564;DHT22;13453;47.994;8.790;2022-10-19T17:44:30;22.20;59.50
25564;DHT22;13453;47.994;8.790;2022-10-19T17:54:32;22.20;59.10
25564;DHT22;13453;47.994;8.790;2022-10-19T18:04:54;22.20;59.00
25564;DHT22;13453;47.994;8.790;2022-10-19T18:14:56;22.30;59.00
25564;DHT22;13453;47.994;8.790;2022-10-19T18:24:57;22.30;58.80
25564;DHT22;13453;47.994;8.790;2022-10-19T18:34:59;22.30;58.90
25564;DHT22;13453;47.994;8.790;2022-10-19T18:45:01;22.30;58.80
25564;DHT22;13453;47.994;8.790;2022-10-19T18:55:04;22.30;58.90
25564;DHT22;13453;47.994;8.790;2022-10-19T19:05:06;22.30;58.70
25564;DHT22;13453;47.994;8.790;2022-10-19T19:15:09;22.30;58.80
25564;DHT22;13453;47.994;8.790;2022-10-19T19:25:11;22.40;59.00
25564;DHT22;13453;47.994;8.790;2022-10-19T19:35:13;22.40;58.90
25564;DHT22;13453;47.994;8.790;2022-10-19T19:45:15;22.40;58.80
25564;DHT22;13453;47.994;8.790;2022-10-19T19:55:17;22.40;58.80
25564;DHT22;13453;47.994;8.790;2022-10-19T20:05:19;22.50;58.60
25564;DHT22;13453;47.994;8.790;2022-10-19T20:15:21;22.50;58.70
25564;DHT22;13453;47.994;8.790;2022-10-19T20:25:23;22.40;58.70
25564;DHT22;13453;47.994;8.790;2022-10-19T20:35:25;22.50;58.80
25564;DHT22;13453;47.994;8.790;2022-10-19T20:45:27;22.40;58.70
25564;DHT22;13453;47.994;8.790;2022-10-19T20:55:29;22.40;58.60
25564;DHT22;13453;47.994;8.790;2022-10-19T21:05:30;22.40;58.80
25564;DHT22;13453;47.994;8.790;2022-10-19T21:15:32;22.40;58.90
25564;DHT22;13453;47.994;8.790;2022-10-19T21:25:34;22.40;58.90
25564;DHT22;13453;47.994;8.790;2022-10-19T21:35:36;22.40;59.00
25564;DHT22;13453;47.994;8.790;2022-10-19T21:45:37;22.40;58.80
25564;DHT22;13453;47.994;8.790;2022-10-19T21:55:39;22.40;58.80
25564;DHT22;13453;47.994;8.790;2022-10-19T22:05:49;22.40;58.90
25564;DHT22;13453;47.994;8.790;2022-10-19T22:15:51;22.40;58.90
25564;DHT22;13453;47.994;8.790;2022-10-19T22:25:53;22.40;58.90
25564;DHT22;13453;47.994;8.790;2022-10-19T22:35:56;22.40;59.00
25564;DHT22;13453;47.994;8.790;2022-10-19T22:45:58;22.40;58.60
25564;DHT22;13453;47.994;8.790;2022-10-19T22:56:00;22.40;58.80
25564;DHT22;13453;47.994;8.790;2022-10-19T23:06:02;22.40;58.70
25564;DHT22;13453;47.994;8.790;2022-10-19T23:16:04;22.40;58.70
25564;DHT22;13453;47.994;8.790;2022-10-19T23:26:14;22.40;58.70
25564;DHT22;13453;47.994;8.790;2022-10-19T23:36:19;22.40;58.80
25564;DHT22;13453;47.994;8.790;2022-10-19T23:46:21;22.40;58.80
25564;DHT22;13453;47.994;8.790;2022-10-19T23:56:25;22.50;58.70
